createdAt,value
2018-01-10T00:00:45.835Z,18.65
2018-01-10T00:03:14.063Z,18.50
2018-01-10T00:05:42.082Z,17.50
2018-01-10T00:08:10.602Z,18.05
2018-01-10T00:10:39.847Z,17.45
2018-01-10T00:13:20.438Z,19.92
2018-01-10T00:15:49.842Z,17.42
2018-01-10T00:18:18.646Z,21.37
2018-01-10T00:20:48.998Z,20.62
2018-01-10T00:23:18.330Z,18.77
2018-01-10T00:25:54.850Z,16.50
2018-01-10T00:28:23.314Z,17.62
2018-01-10T00:30:51.375Z,18.25
2018-01-10T00:33:25.025Z,22.30
2018-01-10T00:35:54.998Z,18.92
2018-01-10T00:38:29.418Z,19.77
2018-01-10T00:41:06.790Z,19.65
2018-01-10T00:43:35.758Z,21.33
2018-01-10T00:46:07.339Z,20.80
2018-01-10T00:48:38.462Z,21.70
2018-01-10T00:51:08.494Z,21.27
2018-01-10T00:53:43.926Z,21.80
2018-01-10T00:56:12.854Z,18.80
2018-01-10T00:58:53.034Z,18.95
2018-01-10T01:01:25.965Z,18.37
2018-01-10T01:03:53.996Z,18.00
2018-01-10T01:06:28.126Z,17.40
2018-01-10T01:09:02.162Z,20.30
2018-01-10T01:11:36.610Z,22.77
2018-01-10T01:14:06.574Z,23.77
2018-01-10T01:16:35.538Z,20.83
2018-01-10T01:19:04.490Z,20.02
2018-01-10T01:21:41.710Z,19.12
2018-01-10T01:24:15.562Z,20.67
2018-01-10T01:26:49.658Z,19.10
2018-01-10T01:29:23.006Z,19.98
2018-01-10T01:31:51.050Z,19.00
2018-01-10T01:34:26.818Z,20.00
2018-01-10T01:36:55.613Z,18.62
2018-01-10T01:39:27.622Z,18.98
2018-01-10T01:41:55.718Z,19.23
2018-01-10T01:44:23.749Z,20.00
2018-01-10T01:46:52.766Z,19.85
2018-01-10T01:49:23.809Z,20.02
2018-01-10T01:51:51.822Z,18.48
2018-01-10T01:54:19.901Z,19.83
2018-01-10T01:56:47.918Z,18.73
2018-01-10T01:59:19.589Z,21.05
2018-01-10T02:01:48.398Z,19.20
2018-01-10T02:04:16.421Z,20.52
2018-01-10T02:06:45.425Z,20.77
2018-01-10T02:09:16.994Z,20.25
2018-01-10T02:11:45.058Z,20.08
2018-01-10T02:14:18.758Z,20.67
2018-01-10T02:16:46.762Z,20.33
2018-01-10T02:19:16.761Z,21.48
2018-01-10T02:21:48.914Z,22.87
2018-01-10T02:24:17.849Z,20.27
2018-01-10T02:26:45.954Z,18.52
2018-01-10T02:29:18.438Z,20.60
2018-01-10T02:31:51.517Z,20.73
2018-01-10T02:34:19.614Z,21.60
2018-01-10T02:36:51.906Z,22.20
2018-01-10T02:39:27.901Z,19.52
2018-01-10T02:41:57.822Z,20.70
2018-01-10T02:44:27.985Z,20.00
2018-01-10T02:47:03.958Z,20.77
2018-01-10T02:49:32.927Z,19.67
2018-01-10T02:52:02.615Z,19.27
2018-01-10T02:54:30.641Z,18.30
2018-01-10T02:57:04.281Z,18.30
2018-01-10T02:59:34.223Z,18.77
2018-01-10T03:02:06.573Z,18.58
2018-01-10T03:04:35.545Z,19.60
2018-01-10T03:07:04.554Z,19.60
2018-01-10T03:09:33.589Z,18.87
2018-01-10T03:12:02.549Z,20.05
2018-01-10T03:14:31.522Z,20.15
2018-01-10T03:16:59.542Z,19.17
2018-01-10T03:19:27.605Z,17.90
2018-01-10T03:21:58.425Z,16.15
2018-01-10T03:24:27.257Z,18.35
2018-01-10T03:26:56.280Z,15.50
2018-01-10T03:32:19.373Z,15.75
2018-01-10T03:34:49.341Z,16.33
2018-01-10T03:37:21.945Z,15.65
2018-01-10T03:39:51.969Z,15.32
2018-01-10T03:42:20.969Z,14.52
2018-01-10T03:44:55.577Z,14.63
2018-01-10T03:47:33.625Z,14.45
2018-01-10T03:50:09.845Z,14.68
2018-01-10T03:52:49.657Z,16.15
2018-01-10T03:55:32.593Z,15.68
2018-01-10T03:58:00.617Z,15.40
2018-01-10T04:00:29.521Z,15.85
2018-01-10T04:02:58.465Z,16.42
2018-01-10T04:08:20.526Z,17.85
2018-01-10T04:10:52.906Z,14.87
2018-01-10T04:13:23.641Z,15.43
2018-01-10T04:15:51.681Z,15.70
2018-01-10T04:18:22.829Z,15.75
2018-01-10T04:21:06.197Z,14.95
2018-01-10T04:23:43.449Z,15.02
2018-01-10T04:26:15.921Z,16.95
2018-01-10T04:28:44.929Z,16.75
2018-01-10T04:31:32.193Z,20.30
2018-01-10T04:34:17.841Z,15.45
2018-01-10T04:36:46.633Z,24.23
2018-01-10T04:39:18.801Z,16.60
2018-01-10T04:41:48.537Z,18.42
2018-01-10T04:44:27.893Z,19.73
2018-01-10T04:46:55.973Z,17.75
2018-01-10T04:49:25.025Z,18.48
2018-01-10T04:51:54.016Z,16.50
2018-01-10T04:54:26.901Z,17.48
2018-01-10T04:57:09.141Z,18.05
2018-01-10T04:59:39.066Z,17.40
2018-01-10T05:02:07.094Z,20.05
2018-01-10T05:04:38.585Z,19.73
2018-01-10T05:07:06.789Z,21.87
2018-01-10T05:09:38.997Z,16.12
2018-01-10T05:12:07.025Z,19.75
2018-01-10T05:14:37.805Z,18.40
2018-01-10T05:17:05.833Z,20.83
2018-01-10T05:19:34.857Z,21.30
2018-01-10T05:25:02.477Z,22.87
2018-01-10T05:27:37.005Z,16.62
2018-01-10T05:30:05.045Z,18.30
2018-01-10T05:32:35.005Z,17.75
2018-01-10T05:35:03.813Z,16.60
2018-01-10T05:37:37.073Z,18.12
2018-01-10T05:40:05.145Z,18.33
2018-01-10T05:42:34.142Z,19.08
2018-01-10T05:45:07.789Z,18.37
2018-01-10T05:47:49.656Z,18.05
2018-01-10T05:50:18.488Z,18.15
2018-01-10T05:52:48.160Z,19.05
2018-01-10T05:55:17.112Z,19.60
2018-01-10T05:57:47.188Z,20.30
2018-01-10T06:00:15.224Z,19.33
2018-01-10T06:02:46.952Z,20.90
2018-01-10T06:05:16.688Z,19.95
2018-01-10T06:07:45.480Z,18.95
2018-01-10T06:13:26.551Z,18.92
2018-01-10T06:15:54.560Z,20.20
2018-01-10T06:18:24.528Z,21.08
2018-01-10T06:20:53.512Z,21.25
2018-01-10T06:23:25.296Z,22.67
2018-01-10T06:25:53.340Z,23.15
2018-01-10T06:28:25.988Z,23.25
2018-01-10T06:30:54.020Z,23.12
2018-01-10T06:36:20.164Z,21.12
2018-01-10T06:38:50.088Z,21.67
2018-01-10T06:41:18.100Z,19.95
2018-01-10T06:43:47.136Z,20.77
2018-01-10T06:49:11.128Z,18.85
2018-01-10T06:51:52.796Z,18.08
2018-01-10T06:54:27.444Z,17.60
2018-01-10T06:56:55.455Z,17.48
2018-01-10T06:59:34.012Z,16.80
2018-01-10T07:02:03.072Z,17.48
2018-01-10T07:04:33.072Z,15.90
2018-01-10T07:07:03.045Z,17.05
2018-01-10T07:09:38.815Z,15.77
2018-01-10T07:12:12.484Z,17.30
2018-01-10T07:14:40.530Z,15.95
2018-01-10T07:17:09.480Z,17.12
2018-01-10T07:19:38.292Z,16.42
2018-01-10T07:22:08.710Z,18.02
2018-01-10T07:24:53.792Z,17.83
2018-01-10T07:27:21.868Z,17.35
2018-01-10T07:29:49.896Z,18.15
2018-01-10T07:32:18.676Z,17.42
2018-01-10T07:34:53.291Z,17.70
2018-01-10T07:37:21.311Z,16.23
2018-01-10T07:39:52.639Z,19.08
2018-01-10T07:42:21.470Z,18.35
2018-01-10T07:44:49.483Z,16.85
2018-01-10T07:47:33.164Z,17.55
2018-01-10T07:50:08.852Z,19.30
2018-01-10T07:52:46.743Z,19.40
2018-01-10T07:55:22.747Z,17.02
2018-01-10T07:57:54.100Z,17.80
2018-01-10T08:00:22.151Z,17.85
2018-01-10T08:02:54.051Z,20.88
2018-01-10T08:05:23.983Z,28.40
2018-01-10T08:07:57.731Z,23.52
2018-01-10T08:10:51.999Z,19.30
2018-01-10T08:16:31.899Z,19.05
2018-01-10T08:18:59.939Z,19.85
2018-01-10T08:21:31.175Z,18.48
2018-01-10T08:23:59.195Z,21.05
2018-01-10T08:26:27.239Z,18.40
2018-01-10T08:28:59.347Z,19.12
2018-01-10T08:31:28.360Z,18.95
2018-01-10T08:33:56.443Z,22.80
2018-01-10T08:36:29.496Z,17.87
2018-01-10T08:39:05.263Z,18.33
2018-01-10T08:41:34.271Z,18.90
2018-01-10T08:44:02.283Z,19.73
2018-01-10T08:46:34.958Z,19.20
2018-01-10T08:49:04.715Z,17.60
2018-01-10T08:51:34.800Z,17.67
2018-01-10T08:54:16.799Z,16.62
2018-01-10T08:56:44.835Z,18.35
2018-01-10T08:59:34.819Z,17.08
2018-01-10T09:02:02.896Z,18.62
2018-01-10T09:04:33.715Z,21.40
2018-01-10T09:07:04.488Z,20.73
2018-01-10T09:09:32.540Z,20.65
2018-01-10T09:12:03.256Z,21.17
2018-01-10T09:14:32.043Z,21.67
2018-01-10T09:17:04.602Z,20.45
2018-01-10T09:19:49.164Z,20.88
2018-01-10T09:22:17.135Z,17.75
2018-01-10T09:24:48.935Z,18.50
2018-01-10T09:27:17.915Z,18.60
2018-01-10T09:29:52.919Z,18.37
2018-01-10T09:32:21.922Z,16.42
2018-01-10T09:34:52.855Z,17.98
2018-01-10T09:37:21.823Z,16.52
2018-01-10T09:40:02.291Z,17.90
2018-01-10T09:42:30.325Z,17.70
2018-01-10T09:45:01.475Z,15.68
2018-01-10T09:47:38.247Z,15.98
2018-01-10T09:50:06.287Z,17.70
2018-01-10T09:52:35.063Z,15.10
2018-01-10T09:55:16.379Z,16.47
2018-01-10T09:57:44.479Z,13.83
2018-01-10T10:00:12.507Z,15.80
2018-01-10T10:02:40.546Z,13.20
2018-01-10T10:05:13.407Z,13.90
2018-01-10T10:07:47.659Z,13.37
2018-01-10T10:10:21.096Z,14.67
2018-01-10T10:12:49.275Z,14.60
2018-01-10T10:15:18.179Z,14.30
2018-01-10T10:17:47.151Z,14.23
2018-01-10T10:20:18.399Z,13.80
2018-01-10T10:22:46.433Z,13.10
2018-01-10T10:25:17.123Z,13.13
2018-01-10T10:27:45.192Z,12.93
2018-01-10T10:30:20.009Z,14.77
2018-01-10T10:32:50.035Z,12.40
2018-01-10T10:35:19.207Z,13.70
2018-01-10T10:37:48.219Z,13.80
2018-01-10T10:40:18.286Z,13.07
2018-01-10T10:42:47.163Z,13.70
2018-01-10T10:45:15.423Z,13.43
2018-01-10T10:47:43.423Z,15.20
2018-01-10T10:50:16.261Z,13.50
2018-01-10T10:52:46.199Z,14.70
2018-01-10T10:55:16.123Z,13.87
2018-01-10T10:57:44.938Z,14.23
2018-01-10T11:00:16.667Z,12.10
2018-01-10T11:02:50.035Z,13.43
2018-01-10T11:05:22.019Z,14.90
2018-01-10T11:07:52.775Z,15.00
2018-01-10T11:10:20.798Z,13.03
2018-01-10T11:12:49.714Z,14.73
2018-01-10T11:15:20.422Z,12.80
2018-01-10T11:17:51.582Z,14.00
2018-01-10T11:20:21.518Z,14.03
2018-01-10T11:22:50.527Z,15.10
2018-01-10T11:25:18.535Z,14.00
2018-01-10T11:27:50.510Z,15.17
2018-01-10T11:30:18.590Z,13.67
2018-01-10T11:32:48.539Z,12.47
2018-01-10T11:35:18.538Z,12.87
2018-01-10T11:37:47.501Z,12.77
2018-01-10T11:40:15.518Z,12.50
2018-01-10T11:42:43.534Z,13.37
2018-01-10T11:45:12.550Z,13.60
2018-01-10T11:47:41.465Z,12.60
2018-01-10T11:50:09.490Z,13.03
2018-01-10T11:52:47.583Z,11.60
2018-01-10T11:55:19.327Z,12.77
2018-01-10T11:57:53.134Z,11.27
2018-01-10T12:00:21.242Z,11.67
2018-01-10T12:02:50.210Z,12.00
2018-01-10T12:05:18.454Z,11.33
2018-01-10T12:07:50.183Z,12.33
2018-01-10T12:10:18.983Z,11.07
2018-01-10T12:12:47.030Z,11.73
2018-01-10T12:15:17.746Z,10.97
2018-01-10T12:17:45.766Z,11.60
2018-01-10T12:20:15.682Z,9.47
2018-01-10T12:22:43.693Z,10.40
2018-01-10T12:25:17.654Z,10.60
2018-01-10T12:27:45.658Z,9.53
2018-01-10T12:30:17.210Z,10.33
2018-01-10T12:32:46.202Z,9.00
2018-01-10T12:35:18.780Z,10.00
2018-01-10T12:37:46.794Z,9.33
2018-01-10T12:40:15.579Z,9.60
2018-01-10T12:42:47.710Z,10.40
2018-01-10T12:45:18.369Z,10.63
2018-01-10T12:47:47.146Z,9.90
2018-01-10T12:50:16.110Z,9.80
2018-01-10T12:52:44.150Z,10.33
2018-01-10T12:55:12.957Z,10.93
2018-01-10T12:57:41.973Z,10.10
2018-01-10T13:00:11.897Z,10.20
2018-01-10T13:02:42.978Z,10.57
2018-01-10T13:05:11.010Z,10.00
2018-01-10T13:07:42.042Z,9.43
2018-01-10T13:10:10.098Z,10.47
2018-01-10T13:12:46.382Z,9.90
2018-01-10T13:15:18.786Z,8.93
2018-01-10T13:17:46.819Z,9.73
2018-01-10T13:20:15.806Z,10.30
2018-01-10T13:22:51.322Z,11.17
2018-01-10T13:25:21.263Z,12.60
2018-01-10T13:27:52.706Z,11.80
2018-01-10T13:30:24.558Z,10.67
2018-01-10T13:32:52.594Z,11.50
2018-01-10T13:35:20.606Z,11.77
2018-01-10T13:37:48.620Z,11.37
2018-01-10T13:40:18.327Z,11.73
2018-01-10T13:42:51.682Z,12.50
2018-01-10T13:45:23.534Z,11.53
2018-01-10T13:47:51.566Z,11.50
2018-01-10T13:50:19.586Z,13.03
2018-01-10T13:52:48.574Z,11.77
2018-01-10T13:55:16.598Z,11.60
2018-01-10T13:57:44.613Z,11.80
2018-01-10T14:00:12.634Z,11.90
2018-01-10T14:02:44.261Z,12.77
2018-01-10T14:05:14.050Z,12.20
2018-01-10T14:07:44.081Z,12.13
2018-01-10T14:10:13.062Z,13.43
2018-01-10T14:12:41.089Z,12.60
2018-01-10T14:15:10.762Z,13.97
2018-01-10T14:17:41.449Z,11.77
2018-01-10T14:20:11.498Z,14.73
2018-01-10T14:22:42.293Z,13.47
2018-01-10T14:25:13.892Z,12.55
2018-01-10T14:27:42.682Z,12.50
2018-01-10T14:30:12.482Z,12.90
2018-01-10T14:32:43.725Z,13.70
2018-01-10T14:35:16.297Z,13.50
2018-01-10T14:37:50.804Z,13.50
2018-01-10T14:40:18.802Z,15.05
2018-01-10T14:42:47.778Z,15.05
2018-01-10T14:45:15.806Z,14.20
2018-01-10T14:47:43.833Z,15.20
2018-01-10T14:50:12.820Z,16.43
2018-01-10T14:52:41.801Z,15.35
2018-01-10T14:55:16.849Z,16.77
2018-01-10T14:57:46.779Z,16.95
2018-01-10T15:00:17.473Z,17.08
2018-01-10T15:02:50.050Z,17.95
2018-01-10T15:05:23.789Z,18.25
2018-01-10T15:07:52.571Z,19.35
2018-01-10T15:10:20.610Z,19.95
2018-01-10T15:12:49.407Z,19.60
2018-01-10T15:18:11.049Z,19.65
2018-01-10T15:20:39.058Z,19.55
2018-01-10T15:23:07.082Z,19.33
2018-01-10T15:25:42.369Z,20.48
2018-01-10T15:28:11.317Z,20.30
2018-01-10T15:30:39.337Z,20.05
2018-01-10T15:33:09.245Z,20.37
2018-01-10T15:35:38.102Z,23.02
2018-01-10T15:38:11.378Z,23.98
2018-01-10T15:40:41.393Z,20.02
2018-01-10T15:43:11.533Z,20.12
2018-01-10T15:45:39.546Z,18.37
2018-01-10T15:48:17.481Z,14.73
2018-01-10T15:50:46.473Z,13.90
2018-01-10T15:53:19.942Z,15.35
2018-01-10T15:55:50.885Z,14.73
2018-01-10T15:58:18.897Z,13.23
2018-01-10T16:00:48.277Z,13.80
2018-01-10T16:03:17.282Z,13.68
2018-01-10T16:05:45.301Z,12.30
2018-01-10T16:08:15.251Z,12.70
2018-01-10T16:10:43.276Z,12.65
2018-01-10T16:13:12.064Z,13.82
2018-01-10T16:15:45.465Z,13.90
2018-01-10T16:18:13.473Z,13.80
2018-01-10T16:20:44.837Z,13.62
2018-01-10T16:23:16.793Z,12.20
2018-01-10T16:25:44.801Z,12.68
2018-01-10T16:28:13.580Z,13.65
2018-01-10T16:30:42.365Z,14.45
2018-01-10T16:33:12.137Z,13.60
2018-01-10T16:35:41.034Z,13.50
2018-01-10T16:38:09.045Z,11.70
2018-01-10T16:40:37.829Z,12.30
2018-01-10T16:43:07.625Z,14.60
2018-01-10T16:45:36.605Z,13.52
2018-01-10T16:48:11.854Z,12.82
2018-01-10T16:50:50.017Z,11.45
2018-01-10T16:53:18.029Z,11.68
2018-01-10T16:55:50.409Z,13.02
2018-01-10T16:58:18.438Z,12.43
2018-01-10T17:00:51.733Z,13.77
2018-01-10T17:03:20.669Z,13.50
2018-01-10T17:05:50.450Z,11.65
2018-01-10T17:08:18.461Z,11.50
2018-01-10T17:10:50.389Z,11.43
2018-01-10T17:13:20.396Z,10.93
2018-01-10T17:15:51.873Z,12.02
2018-01-10T17:18:20.890Z,10.02
2018-01-10T17:20:50.565Z,10.82
2018-01-10T17:23:18.625Z,9.80
2018-01-10T17:25:46.693Z,10.32
2018-01-10T17:28:14.705Z,8.52
2018-01-10T17:30:50.709Z,10.75
2018-01-10T17:33:18.753Z,9.75
2018-01-10T17:35:46.819Z,9.35
2018-01-10T17:38:14.841Z,10.18
2018-01-10T17:40:44.789Z,10.48
2018-01-10T17:43:13.590Z,10.10
2018-01-10T17:45:42.353Z,9.43
2018-01-10T17:48:12.353Z,9.75
2018-01-10T17:50:41.450Z,9.98
2018-01-10T17:53:13.109Z,8.35
2018-01-10T17:55:47.633Z,8.60
2018-01-10T17:58:16.421Z,9.80
2018-01-10T18:00:45.417Z,8.27
2018-01-10T18:03:15.133Z,8.85
2018-01-10T18:05:48.829Z,9.13
2018-01-10T18:08:22.001Z,9.18
2018-01-10T18:10:50.037Z,9.38
2018-01-10T18:13:18.117Z,8.70
2018-01-10T18:15:46.140Z,9.55
2018-01-10T18:18:16.825Z,8.93
2018-01-10T18:20:44.888Z,9.52
2018-01-10T18:23:14.813Z,9.10
2018-01-10T18:25:43.720Z,10.25
2018-01-10T18:28:13.725Z,9.05
2018-01-10T18:30:41.737Z,9.20
2018-01-10T18:33:11.553Z,9.32
2018-01-10T18:35:40.320Z,10.25
2018-01-10T18:38:26.691Z,10.55
2018-01-10T18:40:54.672Z,11.23
2018-01-10T18:43:22.693Z,9.52
2018-01-10T18:45:50.764Z,11.35
2018-01-10T18:48:19.201Z,11.98
2018-01-10T18:50:47.224Z,11.60
2018-01-10T18:53:16.257Z,12.13
2018-01-10T18:55:44.256Z,12.40
2018-01-10T18:58:12.324Z,12.20
2018-01-10T19:00:45.792Z,11.75
2018-01-10T19:03:13.808Z,12.43
2018-01-10T19:05:44.608Z,12.30
2018-01-10T19:08:13.482Z,12.90
2018-01-10T19:10:42.460Z,14.60
2018-01-10T19:13:10.496Z,13.25
2018-01-10T19:15:43.960Z,12.68
2018-01-10T19:18:12.741Z,13.70
2018-01-10T19:20:41.528Z,14.43
2018-01-10T19:23:09.564Z,14.80
2018-01-10T19:25:41.552Z,14.57
2018-01-10T19:28:09.564Z,14.35
2018-01-10T19:30:37.616Z,14.02
2018-01-10T19:33:05.636Z,14.15
2018-01-10T19:35:33.644Z,14.73
2018-01-10T19:38:12.128Z,15.02
2018-01-10T19:40:47.416Z,16.00
2018-01-10T19:43:15.436Z,17.23
2018-01-10T19:45:49.928Z,15.07
2018-01-10T19:48:20.984Z,15.77
2018-01-10T19:50:49.036Z,14.57
2018-01-10T19:53:17.072Z,17.08
2018-01-10T19:55:45.100Z,16.20
2018-01-10T19:58:17.288Z,15.57
2018-01-10T20:00:45.308Z,15.85
2018-01-10T20:03:14.232Z,16.83
2018-01-10T20:05:45.859Z,16.80
2018-01-10T20:08:14.784Z,16.48
2018-01-10T20:10:42.798Z,16.48
2018-01-10T20:13:10.864Z,15.85
2018-01-10T20:15:39.644Z,15.65
2018-01-10T20:18:09.420Z,16.87
2018-01-10T20:20:38.416Z,14.98
2018-01-10T20:23:06.420Z,16.20
2018-01-10T20:25:34.440Z,17.05
2018-01-10T20:28:04.360Z,16.40
2018-01-10T20:30:34.400Z,16.02
2018-01-10T20:33:07.044Z,15.88
2018-01-10T20:35:41.148Z,15.80
2018-01-10T20:38:11.088Z,16.05
2018-01-10T20:40:39.094Z,14.70
2018-01-10T20:43:09.784Z,15.55
2018-01-10T20:45:37.809Z,16.35
2018-01-10T20:48:05.832Z,17.45
2018-01-10T20:50:34.816Z,15.98
2018-01-10T20:53:02.820Z,19.30
2018-01-10T20:55:31.612Z,16.55
2018-01-10T20:58:01.296Z,17.95
2018-01-10T21:00:30.241Z,17.65
2018-01-10T21:02:59.168Z,18.58
2018-01-10T21:05:27.192Z,16.42
2018-01-10T21:07:55.208Z,16.73
2018-01-10T21:10:28.180Z,17.58
2018-01-10T21:12:56.372Z,17.85
2018-01-10T21:15:26.376Z,17.35
2018-01-10T21:17:54.384Z,17.67
2018-01-10T21:20:23.160Z,18.50
2018-01-10T21:22:51.176Z,18.83
2018-01-10T21:25:20.196Z,19.52
2018-01-10T21:27:51.444Z,18.48
2018-01-10T21:30:19.476Z,18.45
2018-01-10T21:32:49.395Z,17.40
2018-01-10T21:35:19.348Z,19.80
2018-01-10T21:37:49.268Z,19.30
2018-01-10T21:40:17.347Z,17.73
2018-01-10T21:42:49.084Z,18.92
2018-01-10T21:45:30.503Z,19.35
2018-01-10T21:47:59.275Z,21.20
2018-01-10T21:50:27.288Z,19.17
2018-01-10T21:52:56.203Z,21.83
2018-01-10T21:55:26.100Z,19.52
2018-01-10T21:57:58.624Z,20.55
2018-01-10T22:00:27.596Z,20.67
2018-01-10T22:02:59.436Z,18.67
2018-01-10T22:05:27.464Z,16.80
2018-01-10T22:07:56.376Z,17.55
2018-01-10T22:10:31.515Z,17.17
2018-01-10T22:13:02.254Z,18.35
2018-01-10T22:15:33.450Z,18.50
2018-01-10T22:18:10.823Z,18.42
2018-01-10T22:20:46.259Z,20.05
2018-01-10T22:23:15.352Z,18.48
2018-01-10T22:25:48.123Z,17.65
2018-01-10T22:28:16.363Z,19.25
2018-01-10T22:30:49.616Z,17.23
2018-01-10T22:33:18.023Z,19.12
2018-01-10T22:35:46.235Z,17.30
2018-01-10T22:38:14.472Z,18.00
2018-01-10T22:40:44.703Z,20.52
2018-01-10T22:46:18.059Z,18.02
2018-01-10T22:48:57.275Z,18.92
2018-01-10T22:54:27.135Z,18.87
2018-01-10T22:56:55.311Z,19.65
2018-01-10T22:59:26.659Z,18.95
2018-01-10T23:01:57.177Z,20.45
2018-01-10T23:04:29.987Z,18.42
2018-01-10T23:07:15.295Z,19.20
2018-01-10T23:27:58.095Z,19.37
2018-01-10T23:30:26.323Z,21.60
2018-01-10T23:32:54.311Z,21.05
2018-01-10T23:35:28.299Z,22.30
2018-01-10T23:37:56.310Z,20.55
2018-01-10T23:40:37.667Z,20.20
2018-01-10T23:43:06.659Z,25.17
2018-01-10T23:45:36.699Z,22.92
2018-01-10T23:48:04.711Z,21.87
2018-01-10T23:50:39.671Z,26.15
2018-01-10T23:53:11.131Z,22.95
2018-01-10T23:55:43.946Z,23.30
2018-01-10T23:58:13.938Z,26.60
